Terminal Aerodrome Forecast
Issued by NWS

Home | Current Version | Previous Version | Text Only | Print | Product List | Glossary Off
Versions: 1 2 3 4 5 6 7 8 9 10 11 12 13 14 15

709
FTUS43 KBIS 290014 AAA
TAFMOT
TAF AMD
KMOT 290014Z 2900/2924 32009KT P6SM SCT250
     FM291400 34009KT P6SM FEW250=

USA.gov is the U.S. government's official web portal to all federal, state and local government web resources and services.